Bei Facebook empfehlenBei Twitter postenGoogle plusPinterest

Das Wetter im Erzgebirge am 09.04.2015

Wetter und Klima am 09.04.2015 Holzhau im Erzgebirge (630m ü.NN)
Letzte gemessene Temperatur und Uhrzeit der Messung23:45:00 Uhr1.10 °C
Temperatur (Maximum / Höchstwert) und Uhrzeit der Messung16:30:00 Uhr13.80 °C
Temperatur (Minimum / Tiefstwert) und Uhrzeit der Messung23:00:000.60 °C
Errechneter Absolutwert der Temperaturschwankungen zwischen Tmin und Tmax des Tages13.20 K
Errechnete Tagesmitteltemperatur5.77917 °C
Gesamt - Niederschlag des Tages (in flüssiger Form)0.00 Liter / m²
Luftdruck (Maximum / Höchstwert) und Zeitpunkt der Messung01:45:00 Uhr1028.80 hPa
Luftdruck (Minimum / Tiefstwert) und Zeitpunkt der Messung23:45:00 Uhr1023.10 hPa
Errechneter Absolutwert der Luftdruckschwankungen des Tages5.70 hPa
Höchste gemessene Windgeschwindigkeit und Uhrzeit der Messung13:15:00 Uhr10.80 km/h
Errechnete Windhäufigkeit in Relation zu den Messwerten des Tages8.33333 %
Niedrigste Windkühle (Windchill) und Zeitpunkt der Messung23:00:00 Uhr0.60 °C
Taupunkt (Maximum / Höchstwert) und Uhrzeit der Messung15:15:00 Uhr6.10 °C
Taupunkt (Minimum / Tiefstwert) und Uhrzeit der Messung23:00:00-1.30 °C
Anzahl der automatisch eingelesenen Messwerte 96

Detaillierte Wetter- und Klima- Messwerte für den 09.04.2015 in Holzhau im Erzgebirge (630m ü.NN)
ZeitTemperaturLuftdruckRel. LuftfeuchteWindWindrichtungWindchillTaupunktNiederschlag l/m²
23:45:001.10 °C1023.10 hPa89.00 %-0.50 °C 
23:30:000.90 °C1023.20 hPa88.00 %-0.90 °C 
23:15:000.80 °C1023.40 hPa88.00 %-1.00 °C 
23:00:000.60 °C1023.50 hPa87.00 %-1.30 °C 
22:45:000.90 °C1023.40 hPa87.00 %-1.00 °C 
22:30:001.30 °C1023.50 hPa86.00 %-0.80 °C 
22:15:001.50 °C1023.60 hPa85.00 %-0.70 °C 
22:00:001.90 °C1023.70 hPa84.00 %-0.50 °C 
21:45:002.10 °C1023.70 hPa83.00 %-0.50 °C 
21:30:002.60 °C1023.80 hPa83.00 %0.00 °C 
21:15:003.30 °C1023.90 hPa82.00 %0.50 °C 
21:00:003.90 °C1023.70 hPa80.00 %0.80 °C 
20:45:004.80 °C1023.50 hPa78.00 %1.30 °C 
20:30:005.50 °C1023.40 hPa78.00 %2.00 °C 
20:15:005.80 °C1023.40 hPa77.00 %2.10 °C 
20:00:006.30 °C1023.60 hPa74.00 %2.00 °C 
19:45:007.20 °C1023.50 hPa72.00 %2.50 °C 
19:30:008.50 °C1023.60 hPa69.00 %3.10 °C 
19:15:009.60 °C1023.80 hPa66.00 %3.60 °C 
19:00:0010.70 °C1023.80 hPa64.00 %4.20 °C 
18:45:0011.50 °C1024.20 hPa62.00 %4.50 °C 
18:30:0012.10 °C1024.30 hPa60.00 %4.60 °C 
18:15:0012.90 °C1024.40 hPa59.00 %5.10 °C 
18:00:0013.30 °C1024.40 hPa59.00 %5.50 °C 
17:45:0013.30 °C1024.50 hPa59.00 %5.50 °C 
17:30:0013.30 °C1024.60 hPa59.00 %5.50 °C 
17:15:0013.30 °C1024.70 hPa59.00 %5.50 °C 
17:00:0013.00 °C1024.70 hPa59.00 %5.20 °C 
16:45:0013.60 °C1024.70 hPa59.00 %5.70 °C 
16:30:0013.80 °C1025.00 hPa59.00 %5.90 °C 
16:15:0013.60 °C1025.00 hPa60.00 %0.36 km/hWSW13.60 °C6.00 °C 
16:00:0013.50 °C1025.10 hPa59.00 %5.70 °C 
15:45:0013.30 °C1025.30 hPa61.00 %5.04 km/hSSO13.50 °C5.90 °C 
15:30:0012.90 °C1025.40 hPa60.00 %5.30 °C 
15:15:0012.70 °C1025.50 hPa64.00 %7.92 km/hSSW12.20 °C6.10 °C 
15:00:0012.30 °C1025.60 hPa65.00 %5.90 °C 
14:45:0011.80 °C1025.70 hPa65.00 %5.40 °C 
14:30:0011.40 °C1025.60 hPa67.00 %5.50 °C 
14:15:0010.80 °C1025.70 hPa69.00 %5.30 °C 
14:00:0010.40 °C1025.80 hPa69.00 %5.00 °C 
13:45:009.90 °C1026.00 hPa72.00 %5.10 °C 
13:30:009.20 °C1026.20 hPa72.00 %4.40 °C 
13:15:009.00 °C1026.30 hPa73.00 %10.80 km/hSSO7.30 °C4.40 °C 
13:00:008.80 °C1026.30 hPa74.00 %4.40 °C 
12:45:008.40 °C1026.40 hPa75.00 %4.20 °C 
12:30:008.30 °C1026.40 hPa76.00 %4.30 °C 
12:15:007.90 °C1026.50 hPa76.00 %3.90 °C 
12:00:007.80 °C1026.60 hPa76.00 %10.80 km/hSW5.90 °C3.80 °C 
11:45:007.30 °C1026.80 hPa77.00 %3.50 °C 
11:30:007.10 °C1026.90 hPa77.00 %3.30 °C 
11:15:007.00 °C1026.80 hPa79.00 %3.60 °C 
11:00:006.80 °C1027.00 hPa80.00 %3.60 °C 
10:45:006.60 °C1026.90 hPa82.00 %3.80 °C 
10:30:006.10 °C1027.00 hPa83.00 %3.40 °C 
10:15:005.70 °C1027.10 hPa84.00 %3.20 °C 
10:00:005.40 °C1027.20 hPa86.00 %0.72 km/hS5.40 °C3.30 °C 
09:45:005.30 °C1027.20 hPa86.00 %3.20 °C 
09:30:004.90 °C1027.20 hPa88.00 %3.10 °C 
09:15:004.70 °C1027.40 hPa89.00 %3.00 °C 
09:00:004.40 °C1027.50 hPa91.00 %3.10 °C 
08:45:004.20 °C1027.30 hPa91.00 %2.90 °C 
08:30:004.00 °C1027.30 hPa92.00 %2.80 °C 
08:15:003.80 °C1027.40 hPa92.00 %2.60 °C 
08:00:003.50 °C1027.40 hPa92.00 %2.30 °C 
07:45:003.30 °C1027.30 hPa93.00 %2.30 °C 
07:30:003.10 °C1027.10 hPa93.00 %3.24 km/hSSO3.10 °C2.10 °C 
07:15:002.90 °C1027.20 hPa93.00 %1.90 °C 
07:00:002.80 °C1027.40 hPa93.00 %6.84 km/hSSO0.90 °C1.80 °C 
06:45:002.70 °C1027.40 hPa93.00 %1.70 °C 
06:30:002.60 °C1027.40 hPa92.00 %1.40 °C 
06:15:002.50 °C1027.50 hPa92.00 %1.30 °C 
06:00:002.30 °C1027.30 hPa92.00 %1.10 °C 
05:45:001.90 °C1027.70 hPa92.00 %0.70 °C 
05:30:001.90 °C1027.90 hPa92.00 %0.70 °C 
05:15:001.90 °C1027.90 hPa92.00 %0.70 °C 
05:00:001.90 °C1028.00 hPa92.00 %0.70 °C 
04:45:001.80 °C1028.10 hPa92.00 %0.60 °C 
04:30:001.80 °C1028.20 hPa92.00 %0.60 °C 
04:15:001.80 °C1028.20 hPa92.00 %0.60 °C 
04:00:001.60 °C1028.10 hPa92.00 %0.40 °C 
03:45:001.80 °C1028.10 hPa92.00 %0.60 °C 
03:30:001.80 °C1028.20 hPa92.00 %0.60 °C 
03:15:001.80 °C1028.30 hPa92.00 %0.60 °C 
03:00:001.80 °C1028.30 hPa92.00 %0.60 °C 
02:45:001.80 °C1028.40 hPa92.00 %0.60 °C 
02:30:001.80 °C1028.50 hPa92.00 %0.60 °C 
02:15:001.80 °C1028.60 hPa92.00 %0.60 °C 
02:00:001.80 °C1028.60 hPa92.00 %0.60 °C 
01:45:001.80 °C1028.80 hPa92.00 %0.60 °C 
01:30:001.80 °C1028.70 hPa92.00 %0.60 °C 
01:15:001.90 °C1028.60 hPa92.00 %0.70 °C 
01:00:001.90 °C1028.60 hPa92.00 %0.70 °C 
00:45:001.90 °C1028.50 hPa92.00 %0.70 °C 
00:30:001.90 °C1028.50 hPa92.00 %0.70 °C 
00:15:002.10 °C1028.70 hPa92.00 %0.90 °C 
00:00:002.10 °C1028.70 hPa92.00 %0.90 °C 

Permanenter Link zu dieser Seite: Wetter im Erzgebirge am 09.04.2015
Performance-Info: Die Erstellung der Seite / Statistik(en) / Tabelle(n) erforderte 5 Datenbankserver-Abfrage(n) und dauerte 71 Millisekunden. (Dieser Messwert ist von der Gesamt-Auslastung des Servers abhängig.)
Erzgebirge - Wetter | Erzgebirge - Wetter (Mobilgeräte) | Komplette Klimadatenbank